sensor_id;sensor_type;location;lat;lon;timestamp;temperature;humidity
43087;DHT22;28708;52.224;6.924;2024-01-25T00:00:27;8.50;99.90
43087;DHT22;28708;52.224;6.924;2024-01-25T00:02:53;8.50;99.90
43087;DHT22;28708;52.224;6.924;2024-01-25T00:05:18;8.50;99.90
43087;DHT22;28708;52.224;6.924;2024-01-25T00:07:52;8.40;99.90
43087;DHT22;28708;52.224;6.924;2024-01-25T00:10:18;8.40;99.90
43087;DHT22;28708;52.224;6.924;2024-01-25T00:12:43;8.50;99.90
43087;DHT22;28708;52.224;6.924;2024-01-25T00:15:09;8.40;99.90
43087;DHT22;28708;52.224;6.924;2024-01-25T00:17:36;8.40;99.90
43087;DHT22;28708;52.224;6.924;2024-01-25T00:20:03;8.40;99.90
43087;DHT22;28708;52.224;6.924;2024-01-25T00:22:28;8.50;99.90
43087;DHT22;28708;52.224;6.924;2024-01-25T00:24:54;8.40;99.90
43087;DHT22;28708;52.224;6.924;2024-01-25T00:27:20;8.40;99.90
43087;DHT22;28708;52.224;6.924;2024-01-25T00:29:45;8.40;99.90
43087;DHT22;28708;52.224;6.924;2024-01-25T00:32:11;8.40;99.90
43087;DHT22;28708;52.224;6.924;2024-01-25T00:34:37;8.50;99.90
43087;DHT22;28708;52.224;6.924;2024-01-25T00:37:02;8.40;99.90
43087;DHT22;28708;52.224;6.924;2024-01-25T00:39:28;8.40;99.90
43087;DHT22;28708;52.224;6.924;2024-01-25T00:42:04;8.40;99.90
43087;DHT22;28708;52.224;6.924;2024-01-25T00:44:31;8.40;99.90
43087;DHT22;28708;52.224;6.924;2024-01-25T00:46:57;8.50;99.90
43087;DHT22;28708;52.224;6.924;2024-01-25T00:49:23;8.50;99.90
43087;DHT22;28708;52.224;6.924;2024-01-25T00:51:49;8.50;99.90
43087;DHT22;28708;52.224;6.924;2024-01-25T00:54:16;8.50;99.90
43087;DHT22;28708;52.224;6.924;2024-01-25T00:56:42;8.50;99.90
43087;DHT22;28708;52.224;6.924;2024-01-25T00:59:08;8.60;99.90
43087;DHT22;28708;52.224;6.924;2024-01-25T01:01:34;8.60;99.90
43087;DHT22;28708;52.224;6.924;2024-01-25T01:04:00;8.60;99.90
43087;DHT22;28708;52.224;6.924;2024-01-25T01:06:26;8.60;99.90
43087;DHT22;28708;52.224;6.924;2024-01-25T01:08:52;8.60;99.90
43087;DHT22;28708;52.224;6.924;2024-01-25T01:11:18;8.60;99.90
43087;DHT22;28708;52.224;6.924;2024-01-25T01:13:44;8.50;99.90
43087;DHT22;28708;52.224;6.924;2024-01-25T01:16:10;8.60;99.90
43087;DHT22;28708;52.224;6.924;2024-01-25T01:18:35;8.60;99.90
43087;DHT22;28708;52.224;6.924;2024-01-25T01:21:01;8.60;99.90
43087;DHT22;28708;52.224;6.924;2024-01-25T01:23:27;8.50;99.90
43087;DHT22;28708;52.224;6.924;2024-01-25T01:25:52;8.50;99.90
43087;DHT22;28708;52.224;6.924;2024-01-25T01:28:18;8.50;99.90
43087;DHT22;28708;52.224;6.924;2024-01-25T01:30:44;8.40;99.90
43087;DHT22;28708;52.224;6.924;2024-01-25T01:33:11;8.40;99.90
43087;DHT22;28708;52.224;6.924;2024-01-25T01:35:36;8.40;99.90
43087;DHT22;28708;52.224;6.924;2024-01-25T01:38:02;8.30;99.90
43087;DHT22;28708;52.224;6.924;2024-01-25T01:40:28;8.30;99.90
43087;DHT22;28708;52.224;6.924;2024-01-25T01:43:00;8.20;99.90
43087;DHT22;28708;52.224;6.924;2024-01-25T01:45:26;8.20;99.90
43087;DHT22;28708;52.224;6.924;2024-01-25T01:47:53;8.10;99.90
43087;DHT22;28708;52.224;6.924;2024-01-25T01:50:18;8.10;99.90
43087;DHT22;28708;52.224;6.924;2024-01-25T01:52:45;8.10;99.90
43087;DHT22;28708;52.224;6.924;2024-01-25T01:55:11;8.10;99.90
43087;DHT22;28708;52.224;6.924;2024-01-25T01:57:37;8.00;99.90
43087;DHT22;28708;52.224;6.924;2024-01-25T02:00:06;8.00;99.90
43087;DHT22;28708;52.224;6.924;2024-01-25T02:02:37;7.90;99.90
43087;DHT22;28708;52.224;6.924;2024-01-25T02:05:03;7.90;99.90
43087;DHT22;28708;52.224;6.924;2024-01-25T02:07:30;7.90;99.90
43087;DHT22;28708;52.224;6.924;2024-01-25T02:09:56;7.80;99.90
43087;DHT22;28708;52.224;6.924;2024-01-25T02:12:21;7.80;99.90
43087;DHT22;28708;52.224;6.924;2024-01-25T02:14:47;7.70;99.90
43087;DHT22;28708;52.224;6.924;2024-01-25T02:17:13;7.70;99.90
43087;DHT22;28708;52.224;6.924;2024-01-25T02:19:38;7.70;99.90
43087;DHT22;28708;52.224;6.924;2024-01-25T02:22:05;7.70;99.90
43087;DHT22;28708;52.224;6.924;2024-01-25T02:24:30;7.70;99.90
43087;DHT22;28708;52.224;6.924;2024-01-25T02:26:56;7.70;99.90
43087;DHT22;28708;52.224;6.924;2024-01-25T02:29:22;7.60;99.90
43087;DHT22;28708;52.224;6.924;2024-01-25T02:31:47;7.60;99.90
43087;DHT22;28708;52.224;6.924;2024-01-25T02:34:13;7.60;99.90
43087;DHT22;28708;52.224;6.924;2024-01-25T02:36:39;7.60;99.90
43087;DHT22;28708;52.224;6.924;2024-01-25T02:39:04;7.60;99.90
43087;DHT22;28708;52.224;6.924;2024-01-25T02:41:31;7.60;99.90
43087;DHT22;28708;52.224;6.924;2024-01-25T02:43:57;7.50;99.90
43087;DHT22;28708;52.224;6.924;2024-01-25T02:46:23;7.40;99.90
43087;DHT22;28708;52.224;6.924;2024-01-25T02:48:49;7.40;99.90
43087;DHT22;28708;52.224;6.924;2024-01-25T02:51:14;7.50;99.90
43087;DHT22;28708;52.224;6.924;2024-01-25T02:53:40;7.50;99.90
43087;DHT22;28708;52.224;6.924;2024-01-25T02:56:06;7.40;99.90
43087;DHT22;28708;52.224;6.924;2024-01-25T02:58:33;7.30;99.90
43087;DHT22;28708;52.224;6.924;2024-01-25T03:00:58;7.30;99.90
43087;DHT22;28708;52.224;6.924;2024-01-25T03:03:24;7.30;99.90
43087;DHT22;28708;52.224;6.924;2024-01-25T03:05:51;7.30;99.90
43087;DHT22;28708;52.224;6.924;2024-01-25T03:08:17;7.20;99.90
43087;DHT22;28708;52.224;6.924;2024-01-25T03:10:43;7.20;99.90
43087;DHT22;28708;52.224;6.924;2024-01-25T03:13:09;7.10;99.90
43087;DHT22;28708;52.224;6.924;2024-01-25T03:15:34;7.10;99.90
43087;DHT22;28708;52.224;6.924;2024-01-25T03:18:00;7.10;99.90
43087;DHT22;28708;52.224;6.924;2024-01-25T03:20:26;7.10;99.90
43087;DHT22;28708;52.224;6.924;2024-01-25T03:22:51;7.00;99.90
43087;DHT22;28708;52.224;6.924;2024-01-25T03:25:17;7.10;99.90
43087;DHT22;28708;52.224;6.924;2024-01-25T03:27:42;7.00;99.90
43087;DHT22;28708;52.224;6.924;2024-01-25T03:30:09;6.90;99.90
43087;DHT22;28708;52.224;6.924;2024-01-25T03:32:35;6.90;99.90
43087;DHT22;28708;52.224;6.924;2024-01-25T03:35:01;6.90;99.90
43087;DHT22;28708;52.224;6.924;2024-01-25T03:37:26;6.90;99.90
43087;DHT22;28708;52.224;6.924;2024-01-25T03:39:52;6.90;99.90
43087;DHT22;28708;52.224;6.924;2024-01-25T03:42:17;6.80;99.90
43087;DHT22;28708;52.224;6.924;2024-01-25T03:44:43;6.80;99.90
43087;DHT22;28708;52.224;6.924;2024-01-25T03:47:10;6.80;99.90
43087;DHT22;28708;52.224;6.924;2024-01-25T03:49:36;6.70;99.90
43087;DHT22;28708;52.224;6.924;2024-01-25T03:52:06;6.70;99.90
43087;DHT22;28708;52.224;6.924;2024-01-25T03:54:32;6.70;99.90
43087;DHT22;28708;52.224;6.924;2024-01-25T03:56:57;6.70;99.90
43087;DHT22;28708;52.224;6.924;2024-01-25T03:59:23;6.60;99.90
43087;DHT22;28708;52.224;6.924;2024-01-25T04:01:48;6.60;99.90
43087;DHT22;28708;52.224;6.924;2024-01-25T04:04:15;6.60;99.90
43087;DHT22;28708;52.224;6.924;2024-01-25T04:06:41;6.50;99.90
43087;DHT22;28708;52.224;6.924;2024-01-25T04:09:13;6.50;99.90
43087;DHT22;28708;52.224;6.924;2024-01-25T04:11:40;6.40;99.90
43087;DHT22;28708;52.224;6.924;2024-01-25T04:14:06;6.40;99.90
43087;DHT22;28708;52.224;6.924;2024-01-25T04:16:33;6.30;99.90
43087;DHT22;28708;52.224;6.924;2024-01-25T04:18:59;6.30;99.90
43087;DHT22;28708;52.224;6.924;2024-01-25T04:21:24;6.20;99.90
43087;DHT22;28708;52.224;6.924;2024-01-25T04:23:50;6.20;99.90
43087;DHT22;28708;52.224;6.924;2024-01-25T04:26:16;6.10;99.90
43087;DHT22;28708;52.224;6.924;2024-01-25T04:28:42;6.20;99.90
43087;DHT22;28708;52.224;6.924;2024-01-25T04:31:08;6.20;99.90
43087;DHT22;28708;52.224;6.924;2024-01-25T04:33:33;6.20;99.90
43087;DHT22;28708;52.224;6.924;2024-01-25T04:35:59;6.20;99.90
43087;DHT22;28708;52.224;6.924;2024-01-25T04:38:25;6.10;99.90
43087;DHT22;28708;52.224;6.924;2024-01-25T04:40:50;6.10;99.90
43087;DHT22;28708;52.224;6.924;2024-01-25T04:43:16;6.00;99.90
43087;DHT22;28708;52.224;6.924;2024-01-25T04:45:42;6.00;99.90
43087;DHT22;28708;52.224;6.924;2024-01-25T04:48:08;6.00;99.90
43087;DHT22;28708;52.224;6.924;2024-01-25T04:50:34;6.10;99.90
43087;DHT22;28708;52.224;6.924;2024-01-25T04:53:02;6.10;99.90
43087;DHT22;28708;52.224;6.924;2024-01-25T04:55:27;6.10;99.90
43087;DHT22;28708;52.224;6.924;2024-01-25T04:57:53;6.00;99.90
43087;DHT22;28708;52.224;6.924;2024-01-25T05:00:22;6.00;99.90
43087;DHT22;28708;52.224;6.924;2024-01-25T05:02:49;6.00;99.90
43087;DHT22;28708;52.224;6.924;2024-01-25T05:05:15;5.90;99.90
43087;DHT22;28708;52.224;6.924;2024-01-25T05:07:41;5.90;99.90
43087;DHT22;28708;52.224;6.924;2024-01-25T05:10:07;5.90;99.90
43087;DHT22;28708;52.224;6.924;2024-01-25T05:12:33;5.90;99.90
43087;DHT22;28708;52.224;6.924;2024-01-25T05:14:59;5.80;99.90
43087;DHT22;28708;52.224;6.924;2024-01-25T05:17:24;5.80;99.90
43087;DHT22;28708;52.224;6.924;2024-01-25T05:19:51;5.90;99.90
43087;DHT22;28708;52.224;6.924;2024-01-25T05:22:16;5.90;99.90
43087;DHT22;28708;52.224;6.924;2024-01-25T05:24:42;5.90;99.90
43087;DHT22;28708;52.224;6.924;2024-01-25T05:27:08;5.80;99.90
43087;DHT22;28708;52.224;6.924;2024-01-25T05:29:34;5.80;99.90
43087;DHT22;28708;52.224;6.924;2024-01-25T05:31:59;5.70;99.90
43087;DHT22;28708;52.224;6.924;2024-01-25T05:34:25;5.70;99.90
43087;DHT22;28708;52.224;6.924;2024-01-25T05:36:50;5.70;99.90
43087;DHT22;28708;52.224;6.924;2024-01-25T05:39:16;5.70;99.90
43087;DHT22;28708;52.224;6.924;2024-01-25T05:41:42;5.70;99.90
43087;DHT22;28708;52.224;6.924;2024-01-25T05:44:12;5.60;99.90
43087;DHT22;28708;52.224;6.924;2024-01-25T05:46:38;5.50;99.90
43087;DHT22;28708;52.224;6.924;2024-01-25T05:49:03;5.50;99.90
43087;DHT22;28708;52.224;6.924;2024-01-25T05:51:29;5.50;99.90
43087;DHT22;28708;52.224;6.924;2024-01-25T05:53:54;5.40;99.90
43087;DHT22;28708;52.224;6.924;2024-01-25T05:56:20;5.40;99.90
43087;DHT22;28708;52.224;6.924;2024-01-25T05:58:46;5.30;99.90
43087;DHT22;28708;52.224;6.924;2024-01-25T06:01:11;5.30;99.90
43087;DHT22;28708;52.224;6.924;2024-01-25T06:03:37;5.40;99.90
43087;DHT22;28708;52.224;6.924;2024-01-25T06:06:03;5.30;99.90
43087;DHT22;28708;52.224;6.924;2024-01-25T06:08:28;5.30;99.90
43087;DHT22;28708;52.224;6.924;2024-01-25T06:10:54;5.30;99.90
43087;DHT22;28708;52.224;6.924;2024-01-25T06:13:19;5.30;99.90
43087;DHT22;28708;52.224;6.924;2024-01-25T06:15:45;5.30;99.90
43087;DHT22;28708;52.224;6.924;2024-01-25T06:18:11;5.30;99.90
43087;DHT22;28708;52.224;6.924;2024-01-25T06:20:36;5.30;99.90
43087;DHT22;28708;52.224;6.924;2024-01-25T06:23:02;5.30;99.90
43087;DHT22;28708;52.224;6.924;2024-01-25T06:25:28;5.30;99.90
43087;DHT22;28708;52.224;6.924;2024-01-25T06:27:57;5.30;99.90
43087;DHT22;28708;52.224;6.924;2024-01-25T06:30:23;5.20;99.90
43087;DHT22;28708;52.224;6.924;2024-01-25T06:32:48;5.30;99.90
43087;DHT22;28708;52.224;6.924;2024-01-25T06:35:14;5.30;99.90
43087;DHT22;28708;52.224;6.924;2024-01-25T06:37:42;5.20;99.90
43087;DHT22;28708;52.224;6.924;2024-01-25T06:40:07;5.30;99.90
43087;DHT22;28708;52.224;6.924;2024-01-25T06:42:33;5.20;99.90
43087;DHT22;28708;52.224;6.924;2024-01-25T06:44:59;5.20;99.90
43087;DHT22;28708;52.224;6.924;2024-01-25T06:47:24;5.30;99.90
43087;DHT22;28708;52.224;6.924;2024-01-25T06:49:50;5.40;99.90
43087;DHT22;28708;52.224;6.924;2024-01-25T06:52:17;5.30;99.90
43087;DHT22;28708;52.224;6.924;2024-01-25T06:54:43;5.20;99.90
43087;DHT22;28708;52.224;6.924;2024-01-25T06:57:09;5.20;99.90
43087;DHT22;28708;52.224;6.924;2024-01-25T06:59:34;5.20;99.90
43087;DHT22;28708;52.224;6.924;2024-01-25T07:02:00;5.20;99.90
43087;DHT22;28708;52.224;6.924;2024-01-25T07:04:28;5.20;99.90
43087;DHT22;28708;52.224;6.924;2024-01-25T07:06:54;5.30;99.90
43087;DHT22;28708;52.224;6.924;2024-01-25T07:09:20;5.30;99.90
43087;DHT22;28708;52.224;6.924;2024-01-25T07:11:46;5.20;99.90
43087;DHT22;28708;52.224;6.924;2024-01-25T07:14:12;5.40;99.90
43087;DHT22;28708;52.224;6.924;2024-01-25T07:16:37;5.40;99.90
43087;DHT22;28708;52.224;6.924;2024-01-25T07:19:03;5.30;99.90
43087;DHT22;28708;52.224;6.924;2024-01-25T07:21:29;5.10;99.90
43087;DHT22;28708;52.224;6.924;2024-01-25T07:24:03;5.10;99.90
43087;DHT22;28708;52.224;6.924;2024-01-25T07:26:29;5.00;99.90
43087;DHT22;28708;52.224;6.924;2024-01-25T07:28:55;5.00;99.90
43087;DHT22;28708;52.224;6.924;2024-01-25T07:31:27;5.00;99.90
43087;DHT22;28708;52.224;6.924;2024-01-25T07:33:53;5.00;99.90
43087;DHT22;28708;52.224;6.924;2024-01-25T07:36:19;5.00;99.90
43087;DHT22;28708;52.224;6.924;2024-01-25T07:38:45;5.10;99.90
43087;DHT22;28708;52.224;6.924;2024-01-25T07:41:17;5.20;99.90
43087;DHT22;28708;52.224;6.924;2024-01-25T07:43:43;5.10;99.90
43087;DHT22;28708;52.224;6.924;2024-01-25T07:46:09;5.20;99.90
43087;DHT22;28708;52.224;6.924;2024-01-25T07:48:35;5.10;99.90
43087;DHT22;28708;52.224;6.924;2024-01-25T07:51:01;5.10;99.90
43087;DHT22;28708;52.224;6.924;2024-01-25T07:53:27;5.20;99.90
43087;DHT22;28708;52.224;6.924;2024-01-25T07:55:52;5.10;99.90
43087;DHT22;28708;52.224;6.924;2024-01-25T07:58:18;5.10;99.90
43087;DHT22;28708;52.224;6.924;2024-01-25T08:00:44;5.10;99.90
43087;DHT22;28708;52.224;6.924;2024-01-25T08:03:11;5.10;99.90
43087;DHT22;28708;52.224;6.924;2024-01-25T08:05:36;5.20;99.90
43087;DHT22;28708;52.224;6.924;2024-01-25T08:08:02;5.10;99.90
43087;DHT22;28708;52.224;6.924;2024-01-25T08:10:27;5.10;99.90
43087;DHT22;28708;52.224;6.924;2024-01-25T08:12:53;5.20;99.90
43087;DHT22;28708;52.224;6.924;2024-01-25T08:15:19;5.20;99.90
43087;DHT22;28708;52.224;6.924;2024-01-25T08:17:44;5.20;99.90
43087;DHT22;28708;52.224;6.924;2024-01-25T08:20:11;5.20;99.90
43087;DHT22;28708;52.224;6.924;2024-01-25T08:22:40;5.20;99.90
43087;DHT22;28708;52.224;6.924;2024-01-25T08:25:06;5.30;99.90
43087;DHT22;28708;52.224;6.924;2024-01-25T08:27:32;5.30;99.90
43087;DHT22;28708;52.224;6.924;2024-01-25T08:29:57;5.30;99.90
43087;DHT22;28708;52.224;6.924;2024-01-25T08:32:23;5.30;99.90
43087;DHT22;28708;52.224;6.924;2024-01-25T08:34:49;5.30;99.90
43087;DHT22;28708;52.224;6.924;2024-01-25T08:37:14;5.30;99.90
43087;DHT22;28708;52.224;6.924;2024-01-25T08:39:40;5.30;99.90
43087;DHT22;28708;52.224;6.924;2024-01-25T08:42:06;5.20;99.90
43087;DHT22;28708;52.224;6.924;2024-01-25T08:44:32;5.30;99.90
43087;DHT22;28708;52.224;6.924;2024-01-25T08:46:57;5.30;99.90
43087;DHT22;28708;52.224;6.924;2024-01-25T08:49:23;5.30;99.90
43087;DHT22;28708;52.224;6.924;2024-01-25T08:51:49;5.40;99.90
43087;DHT22;28708;52.224;6.924;2024-01-25T08:54:15;5.40;99.90
43087;DHT22;28708;52.224;6.924;2024-01-25T08:56:41;5.40;99.90
43087;DHT22;28708;52.224;6.924;2024-01-25T08:59:07;5.30;99.90
43087;DHT22;28708;52.224;6.924;2024-01-25T09:01:32;5.40;99.90
43087;DHT22;28708;52.224;6.924;2024-01-25T09:03:58;5.50;99.90
43087;DHT22;28708;52.224;6.924;2024-01-25T09:06:28;5.50;99.90
43087;DHT22;28708;52.224;6.924;2024-01-25T09:08:55;5.60;99.90
43087;DHT22;28708;52.224;6.924;2024-01-25T09:11:21;5.50;99.90
43087;DHT22;28708;52.224;6.924;2024-01-25T09:13:47;5.50;99.90
43087;DHT22;28708;52.224;6.924;2024-01-25T09:16:15;5.60;99.90
43087;DHT22;28708;52.224;6.924;2024-01-25T09:18:41;5.60;99.90
43087;DHT22;28708;52.224;6.924;2024-01-25T09:21:06;5.60;99.90
43087;DHT22;28708;52.224;6.924;2024-01-25T09:23:32;5.60;99.90
43087;DHT22;28708;52.224;6.924;2024-01-25T09:25:58;5.60;99.90
43087;DHT22;28708;52.224;6.924;2024-01-25T09:28:23;5.60;99.90
43087;DHT22;28708;52.224;6.924;2024-01-25T09:30:49;5.80;99.90
43087;DHT22;28708;52.224;6.924;2024-01-25T09:33:15;6.00;99.90
43087;DHT22;28708;52.224;6.924;2024-01-25T09:35:40;6.00;99.90
43087;DHT22;28708;52.224;6.924;2024-01-25T09:38:06;6.10;99.90
43087;DHT22;28708;52.224;6.924;2024-01-25T09:40:32;6.10;99.90
43087;DHT22;28708;52.224;6.924;2024-01-25T09:42:59;6.20;99.90
43087;DHT22;28708;52.224;6.924;2024-01-25T09:45:27;6.20;99.90
43087;DHT22;28708;52.224;6.924;2024-01-25T09:47:53;6.20;99.90
43087;DHT22;28708;52.224;6.924;2024-01-25T09:50:18;6.20;99.90
43087;DHT22;28708;52.224;6.924;2024-01-25T09:52:44;6.30;99.90
43087;DHT22;28708;52.224;6.924;2024-01-25T09:55:12;6.50;99.90
43087;DHT22;28708;52.224;6.924;2024-01-25T09:57:41;6.80;99.90
43087;DHT22;28708;52.224;6.924;2024-01-25T10:00:08;7.10;99.90
43087;DHT22;28708;52.224;6.924;2024-01-25T10:02:37;6.90;99.90
43087;DHT22;28708;52.224;6.924;2024-01-25T10:05:04;6.70;99.90
43087;DHT22;28708;52.224;6.924;2024-01-25T10:07:40;6.80;99.90
43087;DHT22;28708;52.224;6.924;2024-01-25T10:10:06;7.00;99.90
43087;DHT22;28708;52.224;6.924;2024-01-25T10:12:32;7.20;99.90
43087;DHT22;28708;52.224;6.924;2024-01-25T10:14:58;7.60;99.90
43087;DHT22;28708;52.224;6.924;2024-01-25T10:17:25;7.90;99.90
43087;DHT22;28708;52.224;6.924;2024-01-25T10:19:51;7.80;99.90
43087;DHT22;28708;52.224;6.924;2024-01-25T10:22:16;7.90;99.90
43087;DHT22;28708;52.224;6.924;2024-01-25T10:24:42;7.90;99.90
43087;DHT22;28708;52.224;6.924;2024-01-25T10:27:08;7.50;99.90
43087;DHT22;28708;52.224;6.924;2024-01-25T10:29:37;7.30;99.90
43087;DHT22;28708;52.224;6.924;2024-01-25T10:32:03;7.20;99.90
43087;DHT22;28708;52.224;6.924;2024-01-25T10:34:30;7.60;99.90
43087;DHT22;28708;52.224;6.924;2024-01-25T10:36:57;8.00;99.90
43087;DHT22;28708;52.224;6.924;2024-01-25T10:39:24;8.10;99.90
43087;DHT22;28708;52.224;6.924;2024-01-25T10:41:50;7.90;99.90
43087;DHT22;28708;52.224;6.924;2024-01-25T10:44:17;9.10;99.90
43087;DHT22;28708;52.224;6.924;2024-01-25T10:46:49;9.80;99.90
43087;DHT22;28708;52.224;6.924;2024-01-25T10:49:15;10.10;99.90
43087;DHT22;28708;52.224;6.924;2024-01-25T10:51:41;10.30;99.90
43087;DHT22;28708;52.224;6.924;2024-01-25T10:54:14;9.80;99.90
43087;DHT22;28708;52.224;6.924;2024-01-25T10:56:46;9.40;99.90
43087;DHT22;28708;52.224;6.924;2024-01-25T10:59:12;9.10;99.90
43087;DHT22;28708;52.224;6.924;2024-01-25T11:01:38;9.20;99.90
43087;DHT22;28708;52.224;6.924;2024-01-25T11:04:15;9.30;99.90
43087;DHT22;28708;52.224;6.924;2024-01-25T11:06:42;9.80;99.90
43087;DHT22;28708;52.224;6.924;2024-01-25T11:09:08;9.30;99.90
43087;DHT22;28708;52.224;6.924;2024-01-25T11:11:36;9.20;99.90
43087;DHT22;28708;52.224;6.924;2024-01-25T11:14:02;9.60;99.90
43087;DHT22;28708;52.224;6.924;2024-01-25T11:16:30;9.50;99.90
43087;DHT22;28708;52.224;6.924;2024-01-25T11:18:58;9.00;99.90
43087;DHT22;28708;52.224;6.924;2024-01-25T11:21:45;8.30;99.90
43087;DHT22;28708;52.224;6.924;2024-01-25T11:24:13;8.40;99.90
43087;DHT22;28708;52.224;6.924;2024-01-25T11:26:39;8.40;99.90
43087;DHT22;28708;52.224;6.924;2024-01-25T11:29:04;8.40;99.90
43087;DHT22;28708;52.224;6.924;2024-01-25T11:31:30;9.10;99.90
43087;DHT22;28708;52.224;6.924;2024-01-25T11:33:57;9.70;99.90
43087;DHT22;28708;52.224;6.924;2024-01-25T11:36:25;10.70;99.90
43087;DHT22;28708;52.224;6.924;2024-01-25T11:38:51;10.60;99.90
43087;DHT22;28708;52.224;6.924;2024-01-25T11:41:16;10.80;99.90
43087;DHT22;28708;52.224;6.924;2024-01-25T11:43:42;10.90;99.90
43087;DHT22;28708;52.224;6.924;2024-01-25T11:46:08;10.90;99.90
43087;DHT22;28708;52.224;6.924;2024-01-25T11:48:38;10.60;99.90
43087;DHT22;28708;52.224;6.924;2024-01-25T11:51:03;10.30;99.90
43087;DHT22;28708;52.224;6.924;2024-01-25T11:53:29;11.10;99.90
43087;DHT22;28708;52.224;6.924;2024-01-25T11:55:55;11.80;99.90
43087;DHT22;28708;52.224;6.924;2024-01-25T11:58:22;11.20;99.90
43087;DHT22;28708;52.224;6.924;2024-01-25T12:00:48;10.60;99.90
43087;DHT22;28708;52.224;6.924;2024-01-25T12:03:14;10.50;99.90
43087;DHT22;28708;52.224;6.924;2024-01-25T12:05:41;9.80;99.90
43087;DHT22;28708;52.224;6.924;2024-01-25T12:08:13;9.20;99.90
43087;DHT22;28708;52.224;6.924;2024-01-25T12:10:39;9.10;99.90
43087;DHT22;28708;52.224;6.924;2024-01-25T12:13:09;8.80;99.90
43087;DHT22;28708;52.224;6.924;2024-01-25T12:15:35;8.70;99.90
43087;DHT22;28708;52.224;6.924;2024-01-25T12:18:01;8.80;99.90
43087;DHT22;28708;52.224;6.924;2024-01-25T12:20:28;8.90;99.90
43087;DHT22;28708;52.224;6.924;2024-01-25T12:22:54;8.80;99.90
43087;DHT22;28708;52.224;6.924;2024-01-25T12:25:19;8.80;99.90
43087;DHT22;28708;52.224;6.924;2024-01-25T12:27:47;8.70;99.90
43087;DHT22;28708;52.224;6.924;2024-01-25T12:30:15;8.70;99.90
43087;DHT22;28708;52.224;6.924;2024-01-25T12:32:40;8.70;99.90
43087;DHT22;28708;52.224;6.924;2024-01-25T12:35:06;8.60;99.90
43087;DHT22;28708;52.224;6.924;2024-01-25T12:37:33;8.60;99.90
43087;DHT22;28708;52.224;6.924;2024-01-25T12:39:59;8.70;99.90
43087;DHT22;28708;52.224;6.924;2024-01-25T12:42:24;9.10;99.90
43087;DHT22;28708;52.224;6.924;2024-01-25T12:44:53;9.30;99.90
43087;DHT22;28708;52.224;6.924;2024-01-25T12:47:21;9.30;99.90
43087;DHT22;28708;52.224;6.924;2024-01-25T12:49:47;9.30;99.90
43087;DHT22;28708;52.224;6.924;2024-01-25T12:52:14;9.10;99.90
43087;DHT22;28708;52.224;6.924;2024-01-25T12:54:41;9.00;99.90
43087;DHT22;28708;52.224;6.924;2024-01-25T12:57:07;8.80;99.90
43087;DHT22;28708;52.224;6.924;2024-01-25T12:59:36;8.70;99.90
43087;DHT22;28708;52.224;6.924;2024-01-25T13:02:04;8.80;99.90
43087;DHT22;28708;52.224;6.924;2024-01-25T13:04:30;8.90;99.90
43087;DHT22;28708;52.224;6.924;2024-01-25T13:06:56;8.70;99.90
43087;DHT22;28708;52.224;6.924;2024-01-25T13:09:25;9.00;99.90
43087;DHT22;28708;52.224;6.924;2024-01-25T13:11:51;9.00;99.90
43087;DHT22;28708;52.224;6.924;2024-01-25T13:14:19;9.20;99.90
43087;DHT22;28708;52.224;6.924;2024-01-25T13:16:45;9.10;99.90
43087;DHT22;28708;52.224;6.924;2024-01-25T13:19:11;9.20;99.90
43087;DHT22;28708;52.224;6.924;2024-01-25T13:21:37;9.10;99.90
43087;DHT22;28708;52.224;6.924;2024-01-25T13:24:03;8.80;99.90
43087;DHT22;28708;52.224;6.924;2024-01-25T13:26:29;8.80;99.90
43087;DHT22;28708;52.224;6.924;2024-01-25T13:28:55;8.80;99.90
43087;DHT22;28708;52.224;6.924;2024-01-25T13:31:21;8.80;99.90
43087;DHT22;28708;52.224;6.924;2024-01-25T13:33:46;8.70;99.90
43087;DHT22;28708;52.224;6.924;2024-01-25T13:36:12;8.60;99.90
43087;DHT22;28708;52.224;6.924;2024-01-25T13:38:40;8.60;99.90
43087;DHT22;28708;52.224;6.924;2024-01-25T13:41:06;8.60;99.90
43087;DHT22;28708;52.224;6.924;2024-01-25T13:43:31;8.50;99.90
43087;DHT22;28708;52.224;6.924;2024-01-25T13:45:57;8.60;99.90
43087;DHT22;28708;52.224;6.924;2024-01-25T13:48:23;8.60;99.90
43087;DHT22;28708;52.224;6.924;2024-01-25T13:50:48;8.50;99.90
43087;DHT22;28708;52.224;6.924;2024-01-25T13:53:14;8.60;99.90
43087;DHT22;28708;52.224;6.924;2024-01-25T13:55:40;8.60;99.90
43087;DHT22;28708;52.224;6.924;2024-01-25T13:58:05;8.60;99.90
43087;DHT22;28708;52.224;6.924;2024-01-25T14:00:31;8.60;99.90
43087;DHT22;28708;52.224;6.924;2024-01-25T14:02:57;8.50;99.90
43087;DHT22;28708;52.224;6.924;2024-01-25T14:05:22;8.60;99.90
43087;DHT22;28708;52.224;6.924;2024-01-25T14:07:48;8.60;99.90
43087;DHT22;28708;52.224;6.924;2024-01-25T14:10:14;8.60;99.90
43087;DHT22;28708;52.224;6.924;2024-01-25T14:12:40;8.60;99.90
43087;DHT22;28708;52.224;6.924;2024-01-25T14:15:06;8.70;99.90
43087;DHT22;28708;52.224;6.924;2024-01-25T14:17:31;8.70;99.90
43087;DHT22;28708;52.224;6.924;2024-01-25T14:19:57;8.70;99.90
43087;DHT22;28708;52.224;6.924;2024-01-25T14:22:22;8.80;99.90
43087;DHT22;28708;52.224;6.924;2024-01-25T14:24:48;8.70;99.90
43087;DHT22;28708;52.224;6.924;2024-01-25T14:27:14;8.70;99.90
43087;DHT22;28708;52.224;6.924;2024-01-25T14:29:39;8.60;99.90
43087;DHT22;28708;52.224;6.924;2024-01-25T14:32:05;8.60;99.90
43087;DHT22;28708;52.224;6.924;2024-01-25T14:34:31;8.70;99.90
43087;DHT22;28708;52.224;6.924;2024-01-25T14:36:56;8.60;99.90
43087;DHT22;28708;52.224;6.924;2024-01-25T14:39:22;8.70;99.90
43087;DHT22;28708;52.224;6.924;2024-01-25T14:41:47;8.60;99.90
43087;DHT22;28708;52.224;6.924;2024-01-25T14:44:13;8.60;99.90
43087;DHT22;28708;52.224;6.924;2024-01-25T14:46:39;8.50;99.90
43087;DHT22;28708;52.224;6.924;2024-01-25T14:49:05;8.50;99.90
43087;DHT22;28708;52.224;6.924;2024-01-25T14:51:30;8.50;99.90
43087;DHT22;28708;52.224;6.924;2024-01-25T14:53:56;8.50;99.90
43087;DHT22;28708;52.224;6.924;2024-01-25T14:56:22;8.40;99.90
43087;DHT22;28708;52.224;6.924;2024-01-25T14:58:47;8.40;99.90
43087;DHT22;28708;52.224;6.924;2024-01-25T15:01:16;8.40;99.90
43087;DHT22;28708;52.224;6.924;2024-01-25T15:03:44;8.40;99.90
43087;DHT22;28708;52.224;6.924;2024-01-25T15:06:11;8.50;99.90
43087;DHT22;28708;52.224;6.924;2024-01-25T15:08:37;8.40;99.90
43087;DHT22;28708;52.224;6.924;2024-01-25T15:11:02;8.40;99.90
43087;DHT22;28708;52.224;6.924;2024-01-25T15:13:28;8.30;99.90
43087;DHT22;28708;52.224;6.924;2024-01-25T15:15:54;8.30;99.90
43087;DHT22;28708;52.224;6.924;2024-01-25T15:18:19;8.40;99.90
43087;DHT22;28708;52.224;6.924;2024-01-25T15:20:46;8.40;99.90
43087;DHT22;28708;52.224;6.924;2024-01-25T15:23:12;8.40;99.90
43087;DHT22;28708;52.224;6.924;2024-01-25T15:25:38;8.40;99.90
43087;DHT22;28708;52.224;6.924;2024-01-25T15:28:04;8.40;99.90
43087;DHT22;28708;52.224;6.924;2024-01-25T15:30:30;8.30;99.90
43087;DHT22;28708;52.224;6.924;2024-01-25T15:32:55;8.30;99.90
43087;DHT22;28708;52.224;6.924;2024-01-25T15:35:21;8.30;99.90
43087;DHT22;28708;52.224;6.924;2024-01-25T15:37:47;8.30;99.90